Time;durP1;ratioP1;P1;durP2;ratioP2;P2;SDS_P1;SDS_P2;PMS_P1;PMS_P2;Temp;Humidity;BMP_temperature;BMP_pressure;BME280_temperature;BME280_humidity;BME280_pressure;Samples;Min_cycle;Max_cycle;Signal;HPM_P1;HPM_P2
2022/11/17 00:03:33;;;;;;;1.95;1.00;;;;;;;;;;10498835;28;20040;-74
2022/11/17 00:08:36;;;;;;;3.53;2.08;;;;;;;;;;10489406;28;20044;-76
2022/11/17 00:24:17;;;;;;;3.13;1.88;;;;;;;;;;10506904;28;20055;-75
2022/11/17 00:29:21;;;;;;;5.35;2.65;;;;;;;;;;10505451;28;20098;-74
2022/11/17 00:34:23;;;;;;;;;;;;;;;;;;10514720;28;20041;-73
2022/11/17 00:39:26;;;;;;;1.98;1.27;;;;;;;;;;10513475;28;20005;-75
2022/11/17 00:44:30;;;;;;;1.73;0.88;;;;;;;;;;10514198;28;20484;-73
2022/11/17 00:49:33;;;;;;;;;;;;;;;;;;10507030;28;20048;-74
2022/11/17 00:54:37;;;;;;;;;;;;;;;;;;10520564;28;19921;-75
2022/11/17 00:59:41;;;;;;;3.15;1.67;;;;;;;;;;10505514;28;19950;-75
2022/11/17 01:04:44;;;;;;;3.40;1.83;;;;;;;;;;10512343;28;20035;-75
2022/11/17 01:09:47;;;;;;;4.22;1.92;;;;;;;;;;10517739;28;20494;-75
2022/11/17 01:14:58;;;;;;;4.25;1.80;;;;;;;;;;10509576;28;20040;-76
2022/11/17 01:20:01;;;;;;;6.45;2.47;;;;;;;;;;10514252;28;20040;-74
2022/11/17 01:25:04;;;;;;;4.40;2.25;;;;;;;;;;10511072;28;20043;-74
2022/11/17 01:30:19;;;;;;;7.03;2.27;;;;;;;;;;10512716;28;20050;-76
2022/11/17 01:35:21;;;;;;;;;;;;;;;;;;10516455;28;20339;-74
2022/11/17 01:40:23;;;;;;;4.13;2.08;;;;;;;;;;10498602;28;19998;-76
2022/11/17 01:45:38;;;;;;;5.55;2.08;;;;;;;;;;10506457;28;20048;-76
2022/11/17 01:50:40;;;;;;;;;;;;;;;;;;10522435;28;20036;-76
2022/11/17 01:55:44;;;;;;;5.40;2.13;;;;;;;;;;10504028;28;19967;-76
2022/11/17 02:00:54;;;;;;;2.75;2.00;;;;;;;;;;10507149;28;20074;-74
2022/11/17 02:06:00;;;;;;;1.73;1.25;;;;;;;;;;10509580;28;20032;-75
2022/11/17 02:11:06;;;;;;;3.97;1.65;;;;;;;;;;10512258;28;20032;-74
2022/11/17 02:16:12;;;;;;;1.48;1.13;;;;;;;;;;10524446;28;20036;-75
2022/11/17 02:21:29;;;;;;;1.42;1.30;;;;;;;;;;10509146;28;20040;-75
2022/11/17 02:26:59;;;;;;;2.08;1.42;;;;;;;;;;10465826;28;20136;-75
2022/11/17 02:32:05;;;;;;;3.80;1.27;;;;;;;;;;10477301;28;20114;-74
2022/11/17 02:37:11;;;;;;;0.50;0.30;;;;;;;;;;10506759;28;20122;-74
2022/11/17 02:42:16;;;;;;;2.33;1.40;;;;;;;;;;10491098;28;20444;-74
2022/11/17 02:47:22;;;;;;;3.22;1.40;;;;;;;;;;10501217;28;20032;-74
2022/11/17 02:52:25;;;;;;;2.55;1.63;;;;;;;;;;10506357;28;20055;-74
2022/11/17 02:57:28;;;;;;;3.43;2.00;;;;;;;;;;10515628;28;20135;-73
2022/11/17 03:02:38;;;;;;;0.80;0.80;;;;;;;;;;10510804;28;20047;-75
2022/11/17 03:07:48;;;;;;;2.40;1.40;;;;;;;;;;10503568;28;20094;-75
2022/11/17 03:12:53;;;;;;;4.05;1.63;;;;;;;;;;10504191;28;20047;-74
2022/11/17 03:18:03;;;;;;;1.92;1.42;;;;;;;;;;10520966;28;20036;-74
2022/11/17 03:23:08;;;;;;;3.15;1.52;;;;;;;;;;10515678;28;20127;-74
2022/11/17 03:28:12;;;;;;;2.58;1.50;;;;;;;;;;10520130;28;20038;-74
2022/11/17 03:33:20;;;;;;;3.58;1.70;;;;;;;;;;10522198;28;20045;-75
2022/11/17 03:38:24;;;;;;;2.05;1.30;;;;;;;;;;10510987;28;20416;-75
2022/11/17 03:43:26;;;;;;;;;;;;;;;;;;10517564;28;20048;-74
2022/11/17 03:48:33;;;;;;;1.63;1.10;;;;;;;;;;10515678;28;20347;-74
2022/11/17 03:53:36;;;;;;;4.20;1.55;;;;;;;;;;10516927;28;20516;-75
2022/11/17 03:58:42;;;;;;;1.30;1.00;;;;;;;;;;10507138;28;20080;-74
2022/11/17 04:03:45;;;;;;;2.13;1.25;;;;;;;;;;10512699;28;20040;-74
2022/11/17 04:08:48;;;;;;;4.03;1.17;;;;;;;;;;10511813;28;20543;-74
2022/11/17 04:19:17;;;;;;;0.80;0.80;;;;;;;;;;10519320;28;20039;-74
2022/11/17 04:24:20;;;;;;;3.38;1.50;;;;;;;;;;10511746;28;20039;-75
2022/11/17 04:29:22;;;;;;;1.55;0.57;;;;;;;;;;10506204;28;20044;-75
2022/11/17 04:34:26;;;;;;;0.40;0.40;;;;;;;;;;10512577;28;20037;-74
2022/11/17 04:39:29;;;;;;;1.23;0.52;;;;;;;;;;10514460;28;20129;-74
2022/11/17 04:44:32;;;;;;;2.35;1.15;;;;;;;;;;10510437;28;20496;-74
2022/11/17 04:49:36;;;;;;;1.02;0.68;;;;;;;;;;10514008;28;20256;-74
2022/11/17 04:54:40;;;;;;;0.77;0.77;;;;;;;;;;10509879;28;20028;-74
2022/11/17 04:59:42;;;;;;;2.03;1.10;;;;;;;;;;10505050;28;20043;-75
2022/11/17 05:04:55;;;;;;;0.60;0.50;;;;;;;;;;10517708;28;20112;-74
2022/11/17 05:09:58;;;;;;;3.08;0.93;;;;;;;;;;10511840;28;20477;-75
2022/11/17 05:15:00;;;;;;;1.92;0.77;;;;;;;;;;10512819;28;20346;-74
2022/11/17 05:20:05;;;;;;;0.45;0.40;;;;;;;;;;10518436;28;20082;-75
2022/11/17 05:25:08;;;;;;;3.20;1.00;;;;;;;;;;10512855;28;20130;-75
2022/11/17 05:30:12;;;;;;;1.50;0.95;;;;;;;;;;10506874;28;20402;-75
2022/11/17 05:35:16;;;;;;;1.30;0.90;;;;;;;;;;10515115;28;20143;-75
2022/11/17 05:40:18;;;;;;;2.15;1.48;;;;;;;;;;10502031;28;20430;-74
2022/11/17 05:45:29;;;;;;;0.28;0.28;;;;;;;;;;10500710;28;20091;-75
2022/11/17 05:50:35;;;;;;;2.80;1.10;;;;;;;;;;10516331;28;20048;-75
2022/11/17 05:55:38;;;;;;;2.17;0.98;;;;;;;;;;10509546;28;20140;-75
2022/11/17 06:00:41;;;;;;;1.27;0.95;;;;;;;;;;10511819;28;20044;-74
2022/11/17 06:05:45;;;;;;;3.83;1.27;;;;;;;;;;10514559;28;20043;-74
2022/11/17 06:10:47;;;;;;;3.65;1.45;;;;;;;;;;10516444;28;20063;-75
2022/11/17 06:15:50;;;;;;;3.47;1.45;;;;;;;;;;10514816;28;20424;-74
2022/11/17 06:20:54;;;;;;;2.58;1.27;;;;;;;;;;10514633;28;20152;-75
2022/11/17 06:25:57;;;;;;;4.50;1.35;;;;;;;;;;10516559;28;20044;-76
2022/11/17 06:31:01;;;;;;;0.30;0.30;;;;;;;;;;10505701;28;20047;-74
2022/11/17 06:36:06;;;;;;;0.65;0.35;;;;;;;;;;10506502;28;20047;-75
2022/11/17 06:41:10;;;;;;;2.17;1.40;;;;;;;;;;10508051;28;20459;-74
2022/11/17 06:46:14;;;;;;;3.88;1.60;;;;;;;;;;10514332;28;20043;-73
2022/11/17 06:51:18;;;;;;;4.45;1.30;;;;;;;;;;10515897;28;20048;-75
2022/11/17 06:56:20;;;;;;;6.22;1.55;;;;;;;;;;10516464;28;20076;-73
2022/11/17 07:01:23;;;;;;;3.03;1.40;;;;;;;;;;10516929;28;20068;-73
2022/11/17 07:06:28;;;;;;;5.60;1.98;;;;;;;;;;10527319;28;20465;-74
2022/11/17 07:11:33;;;;;;;1.38;0.90;;;;;;;;;;10523025;28;20044;-74
2022/11/17 07:16:36;;;;;;;0.77;0.55;;;;;;;;;;10514458;28;20063;-74
2022/11/17 07:21:40;;;;;;;4.35;1.70;;;;;;;;;;10518781;28;20105;-74
2022/11/17 07:26:43;;;;;;;4.63;1.42;;;;;;;;;;10512428;28;20458;-74
2022/11/17 07:31:45;;;;;;;0.52;0.52;;;;;;;;;;10519121;28;20048;-75
2022/11/17 07:36:50;;;;;;;4.13;1.90;;;;;;;;;;10512817;28;20036;-75
2022/11/17 07:41:55;;;;;;;1.13;0.63;;;;;;;;;;10513888;28;20122;-75
2022/11/17 07:46:58;;;;;;;3.05;1.50;;;;;;;;;;10512228;28;20028;-75
2022/11/17 07:52:02;;;;;;;0.85;0.77;;;;;;;;;;10518650;28;20043;-75
2022/11/17 07:57:04;;;;;;;2.55;1.45;;;;;;;;;;10517130;28;20353;-75
2022/11/17 08:02:08;;;;;;;3.42;1.58;;;;;;;;;;10514115;28;20485;-74
2022/11/17 08:07:11;;;;;;;;;;;;;;;;;;10517353;28;20090;-76
2022/11/17 08:12:15;;;;;;;2.08;1.27;;;;;;;;;;10512221;28;19932;-76
2022/11/17 08:17:18;;;;;;;4.57;1.80;;;;;;;;;;10505174;28;20046;-75
2022/11/17 08:22:21;;;;;;;4.70;2.00;;;;;;;;;;10511947;28;20163;-75
2022/11/17 08:27:25;;;;;;;5.55;2.05;;;;;;;;;;10510623;28;20041;-74
2022/11/17 08:32:28;;;;;;;5.30;1.63;;;;;;;;;;10502386;28;20135;-74
2022/11/17 08:37:31;;;;;;;5.82;2.30;;;;;;;;;;10506669;28;20036;-75
2022/11/17 08:42:35;;;;;;;2.45;1.55;;;;;;;;;;10508363;28;20071;-75
2022/11/17 08:47:38;;;;;;;10.95;1.95;;;;;;;;;;10508116;28;20036;-76
2022/11/17 08:52:40;;;;;;;1.27;0.82;;;;;;;;;;10504375;28;20108;-75
2022/11/17 08:57:54;;;;;;;7.15;2.10;;;;;;;;;;10504764;28;20039;-76
2022/11/17 09:02:57;;;;;;;4.53;2.28;;;;;;;;;;10511419;28;20071;-75
2022/11/17 09:08:00;;;;;;;4.00;2.08;;;;;;;;;;10504161;28;20472;-75
2022/11/17 09:13:24;;;;;;;3.75;1.65;;;;;;;;;;10507531;28;20043;-76
2022/11/17 09:18:26;;;;;;;5.93;2.40;;;;;;;;;;10499476;28;20109;-76
2022/11/17 09:23:30;;;;;;;5.03;2.10;;;;;;;;;;10505868;28;20048;-77
2022/11/17 09:28:34;;;;;;;4.43;2.40;;;;;;;;;;10506274;28;20252;-77
2022/11/17 09:33:38;;;;;;;4.72;2.20;;;;;;;;;;10510986;28;20123;-74
2022/11/17 09:38:41;;;;;;;5.07;2.80;;;;;;;;;;10507632;28;20047;-75
2022/11/17 09:43:44;;;;;;;;;;;;;;;;;;10511411;28;20055;-74
2022/11/17 09:48:51;;;;;;;2.55;2.35;;;;;;;;;;10507357;28;19924;-75
2022/11/17 09:53:57;;;;;;;3.58;1.88;;;;;;;;;;10509674;28;20226;-76
2022/11/17 09:59:03;;;;;;;5.60;2.25;;;;;;;;;;10511357;28;20111;-75
2022/11/17 10:04:11;;;;;;;3.38;2.03;;;;;;;;;;10510596;28;20567;-74
2022/11/17 10:09:17;;;;;;;7.82;3.40;;;;;;;;;;10508179;28;20051;-77
2022/11/17 10:14:27;;;;;;;4.47;2.30;;;;;;;;;;10503444;28;20052;-76
2022/11/17 10:19:33;;;;;;;5.47;2.20;;;;;;;;;;10514093;28;20055;-76
2022/11/17 10:24:37;;;;;;;3.35;1.83;;;;;;;;;;10514796;28;20143;-75
2022/11/17 10:29:40;;;;;;;3.15;1.50;;;;;;;;;;10513853;28;20140;-74
2022/11/17 10:34:45;;;;;;;4.88;1.80;;;;;;;;;;10514521;28;20135;-74
2022/11/17 10:39:47;;;;;;;4.00;1.48;;;;;;;;;;10518561;28;20047;-75
2022/11/17 10:44:52;;;;;;;2.67;1.10;;;;;;;;;;10513527;28;20155;-74
2022/11/17 10:50:07;;;;;;;4.72;1.58;;;;;;;;;;10519714;28;20540;-75
2022/11/17 10:55:17;;;;;;;2.50;1.27;;;;;;;;;;10515074;28;20089;-75
2022/11/17 11:00:25;;;;;;;3.53;1.02;;;;;;;;;;10515736;28;20125;-75
2022/11/17 11:05:29;;;;;;;2.33;1.13;;;;;;;;;;10522003;28;20132;-74
2022/11/17 11:10:34;;;;;;;1.17;0.85;;;;;;;;;;10519728;28;20036;-75
2022/11/17 11:15:39;;;;;;;1.65;0.95;;;;;;;;;;10505377;28;21309;-75
2022/11/17 11:20:45;;;;;;;4.60;1.40;;;;;;;;;;10513656;28;20048;-74
2022/11/17 11:25:51;;;;;;;1.58;0.90;;;;;;;;;;10514927;28;20044;-75
2022/11/17 11:30:59;;;;;;;1.25;0.80;;;;;;;;;;10504586;28;20082;-75
2022/11/17 11:36:19;;;;;;;2.28;0.77;;;;;;;;;;10504387;28;20455;-75
2022/11/17 11:41:35;;;;;;;0.80;0.70;;;;;;;;;;10507856;28;20051;-75
2022/11/17 11:46:42;;;;;;;1.23;0.80;;;;;;;;;;10509311;28;20471;-76
2022/11/17 11:51:48;;;;;;;1.17;0.70;;;;;;;;;;10514360;28;20055;-75
2022/11/17 11:56:53;;;;;;;1.33;0.82;;;;;;;;;;10520391;28;20040;-75
2022/11/17 12:02:01;;;;;;;2.42;0.80;;;;;;;;;;10511195;28;20044;-75
2022/11/17 12:07:07;;;;;;;2.00;1.13;;;;;;;;;;10509143;28;20039;-75
2022/11/17 12:12:15;;;;;;;1.38;0.90;;;;;;;;;;10506238;28;20048;-76
2022/11/17 12:17:22;;;;;;;0.75;0.57;;;;;;;;;;10520076;28;20392;-75
2022/11/17 12:22:49;;;;;;;1.05;0.70;;;;;;;;;;10506804;28;20512;-75
2022/11/17 12:27:53;;;;;;;1.67;0.80;;;;;;;;;;10508879;28;20477;-75
2022/11/17 12:32:57;;;;;;;2.05;0.90;;;;;;;;;;10502740;28;20524;-75
2022/11/17 12:38:28;;;;;;;2.08;0.80;;;;;;;;;;10515819;28;20028;-76
2022/11/17 12:43:33;;;;;;;2.42;0.70;;;;;;;;;;10511723;28;20036;-76
2022/11/17 12:48:36;;;;;;;2.67;1.27;;;;;;;;;;10511706;28;20048;-75
2022/11/17 12:53:39;;;;;;;;;;;;;;;;;;10513332;28;20314;-74
2022/11/17 12:58:48;;;;;;;0.47;0.45;;;;;;;;;;10509200;28;19996;-76
2022/11/17 13:03:54;;;;;;;1.27;0.70;;;;;;;;;;10506219;28;20052;-76
2022/11/17 13:08:57;;;;;;;3.60;0.75;;;;;;;;;;10511242;28;20032;-75
2022/11/17 13:14:08;;;;;;;5.13;1.00;;;;;;;;;;10522217;27;20047;-75
2022/11/17 13:19:31;;;;;;;3.53;0.93;;;;;;;;;;10517315;28;20032;-74
2022/11/17 13:24:35;;;;;;;0.57;0.38;;;;;;;;;;10509608;28;20068;-75
2022/11/17 13:29:39;;;;;;;3.63;1.23;;;;;;;;;;10515919;28;20119;-75
2022/11/17 13:34:41;;;;;;;;;;;;;;;;;;10511560;28;20040;-75
2022/11/17 13:39:54;;;;;;;1.60;0.88;;;;;;;;;;10528665;28;20353;-75
2022/11/17 13:45:02;;;;;;;2.22;0.70;;;;;;;;;;10510529;28;20526;-76
2022/11/17 13:50:19;;;;;;;1.92;0.90;;;;;;;;;;10514557;28;20076;-75
2022/11/17 13:55:22;;;;;;;2.50;0.70;;;;;;;;;;10504996;28;20047;-76
2022/11/17 14:00:27;;;;;;;2.85;1.00;;;;;;;;;;10510273;28;20560;-75
2022/11/17 14:05:31;;;;;;;5.07;1.20;;;;;;;;;;10513273;28;20052;-75
2022/11/17 14:10:37;;;;;;;1.10;0.98;;;;;;;;;;10515020;28;20493;-75
2022/11/17 14:15:43;;;;;;;2.33;1.00;;;;;;;;;;10510086;28;20040;-75
2022/11/17 14:21:04;;;;;;;2.70;0.85;;;;;;;;;;10513507;28;20508;-74
2022/11/17 14:26:13;;;;;;;1.20;0.65;;;;;;;;;;10509082;28;20040;-77
2022/11/17 14:31:21;;;;;;;5.43;1.08;;;;;;;;;;10504630;28;20423;-75
2022/11/17 14:36:24;;;;;;;5.70;1.55;;;;;;;;;;10505303;28;20051;-75
2022/11/17 14:41:27;;;;;;;4.20;1.40;;;;;;;;;;10521369;28;20047;-75
2022/11/17 14:46:31;;;;;;;5.13;1.40;;;;;;;;;;10490364;28;20143;-76
2022/11/17 14:51:36;;;;;;;5.22;2.08;;;;;;;;;;10511251;28;20386;-76
2022/11/17 14:56:39;;;;;;;8.02;2.10;;;;;;;;;;10509527;28;20052;-75
2022/11/17 15:01:43;;;;;;;5.40;1.20;;;;;;;;;;10506225;28;20085;-76
2022/11/17 15:06:46;;;;;;;;;;;;;;;;;;10513207;28;20524;-76
2022/11/17 15:11:50;;;;;;;4.15;1.17;;;;;;;;;;10516384;28;19971;-75
2022/11/17 15:16:55;;;;;;;3.70;1.30;;;;;;;;;;10520868;28;20062;-76
2022/11/17 15:21:57;;;;;;;4.90;1.35;;;;;;;;;;10515490;28;20060;-75
2022/11/17 15:27:00;;;;;;;4.57;1.42;;;;;;;;;;10516786;28;20059;-75
2022/11/17 15:32:05;;;;;;;4.95;1.58;;;;;;;;;;10514966;28;20033;-74
2022/11/17 15:37:07;;;;;;;5.15;1.77;;;;;;;;;;10508652;28;20505;-74
2022/11/17 15:42:14;;;;;;;1.25;0.98;;;;;;;;;;10506183;28;20334;-76
2022/11/17 15:47:18;;;;;;;2.45;0.93;;;;;;;;;;10503696;28;20036;-75
2022/11/17 15:52:20;;;;;;;19.15;5.30;;;;;;;;;;10506223;28;20486;-75
2022/11/17 15:57:52;;;;;;;21.67;5.15;;;;;;;;;;10521766;28;20036;-75
2022/11/17 16:02:58;;;;;;;7.85;1.90;;;;;;;;;;10509751;28;20421;-74
2022/11/17 16:08:01;;;;;;;7.88;1.83;;;;;;;;;;10517739;28;20139;-75
2022/11/17 16:13:03;;;;;;;14.07;3.85;;;;;;;;;;10518118;28;20048;-76
2022/11/17 16:18:07;;;;;;;10.10;3.20;;;;;;;;;;10505047;28;20044;-75
2022/11/17 16:23:10;;;;;;;9.82;2.92;;;;;;;;;;10515241;28;20048;-74
2022/11/17 16:28:13;;;;;;;10.38;2.20;;;;;;;;;;10522881;28;20037;-74
2022/11/17 16:33:17;;;;;;;6.65;2.30;;;;;;;;;;10508501;28;20040;-75
2022/11/17 16:38:20;;;;;;;16.65;2.97;;;;;;;;;;10507768;28;20074;-74
2022/11/17 16:43:22;;;;;;;5.75;2.35;;;;;;;;;;10510435;28;20078;-74
2022/11/17 16:48:26;;;;;;;13.20;6.03;;;;;;;;;;10508281;28;20047;-75
2022/11/17 16:53:29;;;;;;;9.27;2.17;;;;;;;;;;10512504;28;20040;-75
2022/11/17 16:58:31;;;;;;;10.23;2.67;;;;;;;;;;10514461;28;20040;-76
2022/11/17 17:03:36;;;;;;;3.35;1.52;;;;;;;;;;10520421;28;20050;-74
2022/11/17 17:08:39;;;;;;;25.60;8.32;;;;;;;;;;10523099;28;20132;-75
2022/11/17 17:13:42;;;;;;;16.50;6.03;;;;;;;;;;10515435;28;20362;-75
2022/11/17 17:18:46;;;;;;;12.73;5.73;;;;;;;;;;10526270;28;20032;-75
2022/11/17 17:23:49;;;;;;;13.13;5.03;;;;;;;;;;10519023;28;20471;-75
2022/11/17 17:28:53;;;;;;;2.90;1.60;;;;;;;;;;10525037;28;20044;-75
2022/11/17 17:33:58;;;;;;;7.10;2.80;;;;;;;;;;10518896;28;20055;-75
2022/11/17 17:39:01;;;;;;;11.45;3.03;;;;;;;;;;10513530;28;20089;-75
2022/11/17 17:44:05;;;;;;;3.90;2.25;;;;;;;;;;10515448;28;20047;-74
2022/11/17 17:49:09;;;;;;;14.40;5.45;;;;;;;;;;10510552;28;20036;-75
2022/11/17 17:54:14;;;;;;;32.55;8.77;;;;;;;;;;10516123;28;20241;-75
2022/11/17 17:59:17;;;;;;;13.95;5.07;;;;;;;;;;10520060;28;20032;-76
2022/11/17 18:04:22;;;;;;;13.82;4.53;;;;;;;;;;10520413;28;20097;-74
2022/11/17 18:09:25;;;;;;;11.20;4.10;;;;;;;;;;10512541;28;20098;-74
2022/11/17 18:14:28;;;;;;;10.43;3.90;;;;;;;;;;10516530;28;20044;-75
2022/11/17 18:19:32;;;;;;;7.07;2.60;;;;;;;;;;10512030;28;20044;-74
2022/11/17 18:24:35;;;;;;;10.23;4.40;;;;;;;;;;10518097;28;20117;-74
2022/11/17 18:29:37;;;;;;;9.45;3.67;;;;;;;;;;10513192;28;20093;-74
2022/11/17 18:34:41;;;;;;;2.75;1.45;;;;;;;;;;10514262;28;20058;-75
2022/11/17 18:39:44;;;;;;;12.73;3.83;;;;;;;;;;10513827;28;20097;-75
2022/11/17 18:44:46;;;;;;;12.98;4.50;;;;;;;;;;10516173;28;20513;-76
2022/11/17 18:49:50;;;;;;;17.70;5.05;;;;;;;;;;10524849;28;20036;-75
2022/11/17 18:54:53;;;;;;;10.10;4.38;;;;;;;;;;10518921;28;20044;-75
2022/11/17 18:59:55;;;;;;;16.42;3.90;;;;;;;;;;10519309;28;20039;-75
2022/11/17 19:04:59;;;;;;;33.60;6.78;;;;;;;;;;10515784;28;20441;-75
2022/11/17 19:10:02;;;;;;;34.75;7.43;;;;;;;;;;10513062;28;20044;-76
2022/11/17 19:15:05;;;;;;;67.75;12.32;;;;;;;;;;10510202;28;20414;-76
2022/11/17 19:20:12;;;;;;;22.77;5.40;;;;;;;;;;10518955;28;20040;-76
2022/11/17 19:25:15;;;;;;;25.08;3.80;;;;;;;;;;10527743;28;20063;-75
2022/11/17 19:30:17;;;;;;;19.60;3.70;;;;;;;;;;10524891;28;20089;-74
2022/11/17 19:35:21;;;;;;;27.95;6.07;;;;;;;;;;10499065;28;20041;-74
2022/11/17 19:40:24;;;;;;;18.55;4.68;;;;;;;;;;10521515;28;20644;-74
2022/11/17 19:45:27;;;;;;;24.88;6.07;;;;;;;;;;10523525;28;20044;-75
2022/11/17 19:50:32;;;;;;;8.88;3.10;;;;;;;;;;10517897;28;20036;-75
2022/11/17 19:55:35;;;;;;;12.57;3.90;;;;;;;;;;10519201;28;20409;-74
2022/11/17 20:00:39;;;;;;;15.23;5.50;;;;;;;;;;10516844;28;20120;-75
2022/11/17 20:05:43;;;;;;;25.33;7.63;;;;;;;;;;10518327;28;20464;-75
2022/11/17 20:10:46;;;;;;;19.85;7.30;;;;;;;;;;10520831;28;20032;-75
2022/11/17 20:15:55;;;;;;;11.27;4.07;;;;;;;;;;10524033;28;20055;-75
2022/11/17 20:20:59;;;;;;;22.77;6.53;;;;;;;;;;10534710;28;20114;-76
2022/11/17 20:26:02;;;;;;;26.70;8.93;;;;;;;;;;10503158;28;20216;-74
2022/11/17 20:31:06;;;;;;;30.63;9.67;;;;;;;;;;10499912;28;20466;-75
2022/11/17 20:36:12;;;;;;;6.72;3.20;;;;;;;;;;10518498;28;20694;-74
2022/11/17 20:41:14;;;;;;;19.65;7.03;;;;;;;;;;10516456;28;20393;-74
2022/11/17 20:46:20;;;;;;;22.35;7.70;;;;;;;;;;10509083;28;20068;-75
2022/11/17 20:51:24;;;;;;;24.42;7.97;;;;;;;;;;10524402;28;20032;-75
2022/11/17 20:56:27;;;;;;;12.05;4.28;;;;;;;;;;10521617;28;20052;-75
2022/11/17 21:01:30;;;;;;;15.05;5.18;;;;;;;;;;10517740;28;20082;-75
2022/11/17 21:06:35;;;;;;;12.07;3.53;;;;;;;;;;10523542;28;20492;-75
2022/11/17 21:16:59;;;;;;;5.65;2.88;;;;;;;;;;10517918;28;19927;-75
2022/11/17 21:22:03;;;;;;;11.40;3.50;;;;;;;;;;10520320;28;20043;-75
2022/11/17 21:27:06;;;;;;;5.85;2.85;;;;;;;;;;10511739;28;20270;-75
2022/11/17 21:32:09;;;;;;;7.13;2.75;;;;;;;;;;10510123;28;20473;-75
2022/11/17 21:37:13;;;;;;;9.00;3.03;;;;;;;;;;10512552;28;20114;-75
2022/11/17 21:42:15;;;;;;;1.80;1.27;;;;;;;;;;10514184;28;20051;-76
2022/11/17 21:47:20;;;;;;;5.28;1.75;;;;;;;;;;10518409;28;20040;-76
2022/11/17 21:52:24;;;;;;;2.90;1.40;;;;;;;;;;10524411;28;20044;-75
2022/11/17 21:57:27;;;;;;;5.28;1.60;;;;;;;;;;10518821;28;20375;-75
2022/11/17 22:02:30;;;;;;;1.67;1.27;;;;;;;;;;10518070;28;20042;-73
2022/11/17 22:07:34;;;;;;;1.77;0.77;;;;;;;;;;10521217;28;20036;-76
2022/11/17 22:12:36;;;;;;;5.20;1.42;;;;;;;;;;10522680;28;20500;-76
2022/11/17 22:17:39;;;;;;;3.13;1.27;;;;;;;;;;10504030;28;20052;-75
2022/11/17 22:22:44;;;;;;;3.63;1.67;;;;;;;;;;10530299;28;20051;-74
2022/11/17 22:27:46;;;;;;;3.25;1.60;;;;;;;;;;10526530;28;20127;-74
2022/11/17 22:32:49;;;;;;;2.55;1.30;;;;;;;;;;10529107;28;21358;-75
2022/11/17 22:37:53;;;;;;;3.97;1.25;;;;;;;;;;10529752;28;20056;-75
2022/11/17 22:42:56;;;;;;;3.10;1.50;;;;;;;;;;10525312;28;20097;-75
2022/11/17 22:48:06;;;;;;;3.22;1.40;;;;;;;;;;10521368;28;20036;-75
2022/11/17 22:53:10;;;;;;;2.65;0.80;;;;;;;;;;10522150;28;20043;-74
2022/11/17 22:58:14;;;;;;;0.75;0.50;;;;;;;;;;10526156;28;20047;-75
2022/11/17 23:03:17;;;;;;;1.50;0.85;;;;;;;;;;10527405;28;20055;-75
2022/11/17 23:08:21;;;;;;;1.70;0.73;;;;;;;;;;10522711;28;20048;-75
2022/11/17 23:13:23;;;;;;;1.23;0.40;;;;;;;;;;10525809;28;20040;-75
2022/11/17 23:18:26;;;;;;;1.80;0.82;;;;;;;;;;10521815;28;20055;-75
2022/11/17 23:23:32;;;;;;;0.90;0.47;;;;;;;;;;10528370;28;20040;-75
2022/11/17 23:28:35;;;;;;;1.83;0.90;;;;;;;;;;10517284;28;20108;-75
2022/11/17 23:33:39;;;;;;;0.57;0.50;;;;;;;;;;10517152;28;20425;-76
2022/11/17 23:38:43;;;;;;;2.20;0.68;;;;;;;;;;10523061;28;20040;-76
2022/11/17 23:43:55;;;;;;;3.33;1.42;;;;;;;;;;10519773;28;20043;-75
2022/11/17 23:48:58;;;;;;;1.75;0.95;;;;;;;;;;10514516;28;20040;-76
2022/11/17 23:54:02;;;;;;;17.85;3.15;;;;;;;;;;10527225;28;20120;-75
2022/11/17 23:59:05;;;;;;;7.10;2.72;;;;;;;;;;10522843;28;20051;-74
